sensor_id;sensor_type;location;lat;lon;timestamp;pressure;altitude;pressure_sealevel;temperature;humidity
38716;BME280;24833;49.324;8.694;2022-10-16T00:01:38;99597.91;;;15.69;100.00
38716;BME280;24833;49.324;8.694;2022-10-16T00:04:05;99603.03;;;15.71;100.00
38716;BME280;24833;49.324;8.694;2022-10-16T00:06:32;99604.72;;;15.72;100.00
38716;BME280;24833;49.324;8.694;2022-10-16T00:09:00;99590.41;;;15.71;100.00
38716;BME280;24833;49.324;8.694;2022-10-16T00:11:33;99596.03;;;15.70;100.00
38716;BME280;24833;49.324;8.694;2022-10-16T00:14:10;99605.53;;;15.72;100.00
38716;BME280;24833;49.324;8.694;2022-10-16T00:16:38;99608.22;;;15.72;100.00
38716;BME280;24833;49.324;8.694;2022-10-16T00:19:05;99611.72;;;15.73;100.00
38716;BME280;24833;49.324;8.694;2022-10-16T00:21:33;99617.13;;;15.73;100.00
38716;BME280;24833;49.324;8.694;2022-10-16T00:24:19;99609.03;;;15.73;100.00
38716;BME280;24833;49.324;8.694;2022-10-16T00:26:49;99601.16;;;15.71;100.00
38716;BME280;24833;49.324;8.694;2022-10-16T00:29:16;99605.97;;;15.69;100.00
38716;BME280;24833;49.324;8.694;2022-10-16T00:31:43;99605.97;;;15.69;100.00
38716;BME280;24833;49.324;8.694;2022-10-16T00:34:10;99589.00;;;15.69;100.00
38716;BME280;24833;49.324;8.694;2022-10-16T00:36:37;99576.59;;;15.68;100.00
38716;BME280;24833;49.324;8.694;2022-10-16T00:39:05;99587.94;;;15.70;100.00
38716;BME280;24833;49.324;8.694;2022-10-16T00:41:32;99600.59;;;15.69;100.00
38716;BME280;24833;49.324;8.694;2022-10-16T00:44:03;99601.41;;;15.70;100.00
38716;BME280;24833;49.324;8.694;2022-10-16T00:46:41;99601.66;;;15.68;100.00
38716;BME280;24833;49.324;8.694;2022-10-16T00:49:17;99593.56;;;15.68;100.00
38716;BME280;24833;49.324;8.694;2022-10-16T00:51:49;99610.53;;;15.69;100.00
38716;BME280;24833;49.324;8.694;2022-10-16T00:54:24;99617.56;;;15.70;100.00
38716;BME280;24833;49.324;8.694;2022-10-16T00:56:54;99617.81;;;15.68;100.00
38716;BME280;24833;49.324;8.694;2022-10-16T00:59:48;99625.88;;;15.68;100.00
38716;BME280;24833;49.324;8.694;2022-10-16T01:02:16;99615.94;;;15.69;100.00
38716;BME280;24833;49.324;8.694;2022-10-16T01:04:48;99613.25;;;15.69;100.00
38716;BME280;24833;49.324;8.694;2022-10-16T01:10:39;99601.88;;;15.67;100.00
38716;BME280;24833;49.324;8.694;2022-10-16T01:13:16;99605.97;;;15.69;100.00
38716;BME280;24833;49.324;8.694;2022-10-16T01:16:03;99606.78;;;15.70;100.00
38716;BME280;24833;49.324;8.694;2022-10-16T01:18:49;99615.94;;;15.69;100.00
38716;BME280;24833;49.324;8.694;2022-10-16T01:21:32;99618.63;;;15.69;100.00
38716;BME280;24833;49.324;8.694;2022-10-16T01:24:37;99618.88;;;15.67;100.00
38716;BME280;24833;49.324;8.694;2022-10-16T01:27:22;99624.00;;;15.69;100.00
38716;BME280;24833;49.324;8.694;2022-10-16T01:30:23;99615.13;;;15.68;100.00
38716;BME280;24833;49.324;8.694;2022-10-16T01:33:17;99611.59;;;15.68;100.00
38716;BME280;24833;49.324;8.694;2022-10-16T01:35:52;99613.47;;;15.67;100.00
38716;BME280;24833;49.324;8.694;2022-10-16T01:38:34;99619.69;;;15.68;100.00
38716;BME280;24833;49.324;8.694;2022-10-16T01:41:13;99619.69;;;15.68;100.00
38716;BME280;24833;49.324;8.694;2022-10-16T01:44:03;99621.31;;;15.69;100.00
38716;BME280;24833;49.324;8.694;2022-10-16T01:46:36;99618.63;;;15.69;100.00
38716;BME280;24833;49.324;8.694;2022-10-16T01:49:06;99610.53;;;15.69;100.00
38716;BME280;24833;49.324;8.694;2022-10-16T01:51:36;99617.81;;;15.68;100.00
38716;BME280;24833;49.324;8.694;2022-10-16T01:54:07;99617.00;;;15.68;100.00
38716;BME280;24833;49.324;8.694;2022-10-16T01:56:35;99617.56;;;15.70;100.00
38716;BME280;24833;49.324;8.694;2022-10-16T01:59:18;99622.94;;;15.70;100.00
38716;BME280;24833;49.324;8.694;2022-10-16T02:01:55;99621.88;;;15.71;100.00
38716;BME280;24833;49.324;8.694;2022-10-16T02:04:44;99630.78;;;15.71;100.00
38716;BME280;24833;49.324;8.694;2022-10-16T02:07:12;99633.28;;;15.73;100.00
38716;BME280;24833;49.324;8.694;2022-10-16T02:09:40;99629.75;;;15.72;100.00
38716;BME280;24833;49.324;8.694;2022-10-16T02:12:30;99627.88;;;15.73;100.00
38716;BME280;24833;49.324;8.694;2022-10-16T02:14:59;99626.84;;;15.74;100.00
38716;BME280;24833;49.324;8.694;2022-10-16T02:17:27;99637.34;;;15.75;100.00
38716;BME280;24833;49.324;8.694;2022-10-16T02:19:56;99638.19;;;15.76;100.00
38716;BME280;24833;49.324;8.694;2022-10-16T02:22:38;99635.47;;;15.76;100.00
38716;BME280;24833;49.324;8.694;2022-10-16T02:28:13;99622.03;;;15.76;100.00
38716;BME280;24833;49.324;8.694;2022-10-16T02:30:57;99621.19;;;15.75;100.00
38716;BME280;24833;49.324;8.694;2022-10-16T02:33:27;99633.59;;;15.76;100.00
38716;BME280;24833;49.324;8.694;2022-10-16T02:35:56;99629.03;;;15.77;100.00
38716;BME280;24833;49.324;8.694;2022-10-16T02:38:24;99628.22;;;15.76;100.00
38716;BME280;24833;49.324;8.694;2022-10-16T02:40:52;99625.28;;;15.78;100.00
38716;BME280;24833;49.324;8.694;2022-10-16T02:43:19;99635.25;;;15.77;100.00
38716;BME280;24833;49.324;8.694;2022-10-16T02:45:46;99633.38;;;15.78;100.00
38716;BME280;24833;49.324;8.694;2022-10-16T02:48:13;99631.53;;;15.78;100.00
38716;BME280;24833;49.324;8.694;2022-10-16T02:50:41;99638.75;;;15.78;100.00
38716;BME280;24833;49.324;8.694;2022-10-16T02:53:08;99630.69;;;15.78;100.00
38716;BME280;24833;49.324;8.694;2022-10-16T02:55:35;99630.69;;;15.78;100.00
38716;BME280;24833;49.324;8.694;2022-10-16T02:58:02;99630.69;;;15.78;100.00
38716;BME280;24833;49.324;8.694;2022-10-16T03:00:29;99637.72;;;15.79;100.00
38716;BME280;24833;49.324;8.694;2022-10-16T03:02:56;99643.13;;;15.79;100.00
38716;BME280;24833;49.324;8.694;2022-10-16T03:05:23;99641.44;;;15.78;100.00
38716;BME280;24833;49.324;8.694;2022-10-16T03:07:50;99650.59;;;15.77;100.00
38716;BME280;24833;49.324;8.694;2022-10-16T03:10:19;99650.59;;;15.77;100.00
38716;BME280;24833;49.324;8.694;2022-10-16T03:12:46;99650.59;;;15.77;100.00
38716;BME280;24833;49.324;8.694;2022-10-16T03:15:13;99651.41;;;15.77;100.00
38716;BME280;24833;49.324;8.694;2022-10-16T03:17:40;99653.88;;;15.79;100.00
38716;BME280;24833;49.324;8.694;2022-10-16T03:20:07;99648.50;;;15.79;100.00
38716;BME280;24833;49.324;8.694;2022-10-16T03:22:34;99644.75;;;15.80;100.00
38716;BME280;24833;49.324;8.694;2022-10-16T03:25:02;99652.81;;;15.80;100.00
38716;BME280;24833;49.324;8.694;2022-10-16T03:27:29;99650.13;;;15.80;100.00
38716;BME280;24833;49.324;8.694;2022-10-16T03:29:56;99649.06;;;15.81;100.00
38716;BME280;24833;49.324;8.694;2022-10-16T03:32:23;99648.03;;;15.82;100.00
38716;BME280;24833;49.324;8.694;2022-10-16T03:34:52;99650.94;;;15.80;100.00
38716;BME280;24833;49.324;8.694;2022-10-16T03:37:20;99648.03;;;15.82;100.00
38716;BME280;24833;49.324;8.694;2022-10-16T03:39:47;99644.28;;;15.83;100.00
38716;BME280;24833;49.324;8.694;2022-10-16T03:42:14;99640.50;;;15.84;100.00
38716;BME280;24833;49.324;8.694;2022-10-16T03:44:41;99629.16;;;15.82;100.00
38716;BME280;24833;49.324;8.694;2022-10-16T03:47:08;99630.81;;;15.83;100.00
38716;BME280;24833;49.324;8.694;2022-10-16T03:49:35;99625.41;;;15.83;100.00
38716;BME280;24833;49.324;8.694;2022-10-16T03:52:02;99635.13;;;15.84;100.00
38716;BME280;24833;49.324;8.694;2022-10-16T03:54:29;99640.50;;;15.84;100.00
38716;BME280;24833;49.324;8.694;2022-10-16T03:56:56;99642.19;;;15.85;100.00
38716;BME280;24833;49.324;8.694;2022-10-16T03:59:23;99636.81;;;15.85;100.00
38716;BME280;24833;49.324;8.694;2022-10-16T04:01:50;99648.16;;;15.87;100.00
38716;BME280;24833;49.324;8.694;2022-10-16T04:04:17;99648.38;;;15.86;100.00
38716;BME280;24833;49.324;8.694;2022-10-16T04:06:44;99647.56;;;15.85;100.00
38716;BME280;24833;49.324;8.694;2022-10-16T04:09:11;99650.84;;;15.87;100.00
38716;BME280;24833;49.324;8.694;2022-10-16T04:11:38;99659.50;;;15.89;100.00
38716;BME280;24833;49.324;8.694;2022-10-16T04:14:05;99661.38;;;15.89;100.00
38716;BME280;24833;49.324;8.694;2022-10-16T04:16:32;99662.78;;;15.91;100.00
38716;BME280;24833;49.324;8.694;2022-10-16T04:18:59;99661.13;;;15.90;100.00
38716;BME280;24833;49.324;8.694;2022-10-16T04:21:26;99657.38;;;15.91;100.00
38716;BME280;24833;49.324;8.694;2022-10-16T04:23:53;99663.63;;;15.92;100.00
38716;BME280;24833;49.324;8.694;2022-10-16T04:26:20;99663.63;;;15.92;100.00
38716;BME280;24833;49.324;8.694;2022-10-16T04:28:47;99657.19;;;15.93;100.00
38716;BME280;24833;49.324;8.694;2022-10-16T04:31:14;99660.69;;;15.93;100.00
38716;BME280;24833;49.324;8.694;2022-10-16T04:33:44;99674.72;;;15.95;100.00
38716;BME280;24833;49.324;8.694;2022-10-16T04:36:12;99676.59;;;15.95;100.00
38716;BME280;24833;49.324;8.694;2022-10-16T04:38:39;99684.44;;;15.96;100.00
38716;BME280;24833;49.324;8.694;2022-10-16T04:41:07;99687.13;;;15.96;100.00
38716;BME280;24833;49.324;8.694;2022-10-16T04:43:34;99687.13;;;15.96;100.00
38716;BME280;24833;49.324;8.694;2022-10-16T04:46:01;99680.13;;;15.95;100.00
38716;BME280;24833;49.324;8.694;2022-10-16T04:48:28;99670.16;;;15.96;100.00
38716;BME280;24833;49.324;8.694;2022-10-16T04:50:55;99659.38;;;15.96;100.00
38716;BME280;24833;49.324;8.694;2022-10-16T04:53:23;99676.38;;;15.96;100.00
38716;BME280;24833;49.324;8.694;2022-10-16T04:55:50;99673.66;;;15.96;100.00
38716;BME280;24833;49.324;8.694;2022-10-16T04:58:17;99671.78;;;15.97;100.00
38716;BME280;24833;49.324;8.694;2022-10-16T05:00:45;99674.50;;;15.97;100.00
38716;BME280;24833;49.324;8.694;2022-10-16T05:03:13;99675.31;;;15.97;100.00
38716;BME280;24833;49.324;8.694;2022-10-16T05:05:45;99678.00;;;15.97;100.00
38716;BME280;24833;49.324;8.694;2022-10-16T05:08:13;99669.34;;;15.95;100.00
38716;BME280;24833;49.324;8.694;2022-10-16T05:10:42;99669.34;;;15.95;100.00
38716;BME280;24833;49.324;8.694;2022-10-16T05:13:10;99661.50;;;15.94;100.00
38716;BME280;24833;49.324;8.694;2022-10-16T05:15:38;99665.00;;;15.94;100.00
38716;BME280;24833;49.324;8.694;2022-10-16T05:18:04;99667.13;;;15.92;100.00
38716;BME280;24833;49.324;8.694;2022-10-16T05:20:32;99682.22;;;15.93;100.00
38716;BME280;24833;49.324;8.694;2022-10-16T05:22:59;99681.19;;;15.94;100.00
38716;BME280;24833;49.324;8.694;2022-10-16T05:25:26;99688.44;;;15.94;100.00
38716;BME280;24833;49.324;8.694;2022-10-16T05:27:53;99678.47;;;15.94;100.00
38716;BME280;24833;49.324;8.694;2022-10-16T05:30:20;99675.22;;;15.92;100.00
38716;BME280;24833;49.324;8.694;2022-10-16T05:32:48;99663.38;;;15.93;100.00
38716;BME280;24833;49.324;8.694;2022-10-16T05:35:16;99668.75;;;15.93;100.00
38716;BME280;24833;49.324;8.694;2022-10-16T05:37:44;99671.47;;;15.93;100.00
38716;BME280;24833;49.324;8.694;2022-10-16T05:40:12;99677.66;;;15.94;100.00
38716;BME280;24833;49.324;8.694;2022-10-16T05:42:40;99677.41;;;15.95;100.00
38716;BME280;24833;49.324;8.694;2022-10-16T05:45:10;99681.75;;;15.96;100.00
38716;BME280;24833;49.324;8.694;2022-10-16T05:47:37;99694.16;;;15.97;100.00
38716;BME280;24833;49.324;8.694;2022-10-16T05:50:05;99700.38;;;15.98;100.00
38716;BME280;24833;49.324;8.694;2022-10-16T05:52:32;99698.28;;;16.00;100.00
38716;BME280;24833;49.324;8.694;2022-10-16T05:54:59;99700.16;;;15.99;100.00
38716;BME280;24833;49.324;8.694;2022-10-16T05:57:26;99705.06;;;16.02;100.00
38716;BME280;24833;49.324;8.694;2022-10-16T05:59:53;99697.00;;;16.02;100.00
38716;BME280;24833;49.324;8.694;2022-10-16T06:02:20;99700.25;;;16.04;100.00
38716;BME280;24833;49.324;8.694;2022-10-16T06:04:47;99702.13;;;16.04;100.00
38716;BME280;24833;49.324;8.694;2022-10-16T06:07:14;99709.41;;;16.03;100.00
38716;BME280;24833;49.324;8.694;2022-10-16T06:09:41;99713.72;;;16.04;100.00
38716;BME280;24833;49.324;8.694;2022-10-16T06:12:08;99711.88;;;16.05;100.00
38716;BME280;24833;49.324;8.694;2022-10-16T06:14:35;99711.88;;;16.05;100.00
38716;BME280;24833;49.324;8.694;2022-10-16T06:17:02;99713.16;;;16.02;100.00
38716;BME280;24833;49.324;8.694;2022-10-16T06:19:29;99720.06;;;15.98;100.00
38716;BME280;24833;49.324;8.694;2022-10-16T06:21:56;99712.44;;;15.95;100.00
38716;BME280;24833;49.324;8.694;2022-10-16T06:24:25;99725.31;;;15.93;100.00
38716;BME280;24833;49.324;8.694;2022-10-16T06:26:52;99723.91;;;15.91;100.00
38716;BME280;24833;49.324;8.694;2022-10-16T06:29:19;99726.59;;;15.91;100.00
38716;BME280;24833;49.324;8.694;2022-10-16T06:31:46;99717.94;;;15.89;100.00
38716;BME280;24833;49.324;8.694;2022-10-16T06:34:13;99709.03;;;15.88;100.00
38716;BME280;24833;49.324;8.694;2022-10-16T06:36:40;99698.75;;;15.85;100.00
38716;BME280;24833;49.324;8.694;2022-10-16T06:39:08;99696.25;;;15.84;100.00
38716;BME280;24833;49.324;8.694;2022-10-16T06:41:35;99715.09;;;15.84;100.00
38716;BME280;24833;49.324;8.694;2022-10-16T06:44:14;99718.84;;;15.83;100.00
38716;BME280;24833;49.324;8.694;2022-10-16T06:46:41;99710.19;;;15.80;100.00
38716;BME280;24833;49.324;8.694;2022-10-16T06:49:08;99718.28;;;15.80;100.00
38716;BME280;24833;49.324;8.694;2022-10-16T06:51:35;99717.22;;;15.82;100.00
38716;BME280;24833;49.324;8.694;2022-10-16T06:54:09;99724.47;;;15.81;100.00
38716;BME280;24833;49.324;8.694;2022-10-16T06:56:36;99720.72;;;15.82;100.00
38716;BME280;24833;49.324;8.694;2022-10-16T06:59:03;99722.38;;;15.83;100.00
38716;BME280;24833;49.324;8.694;2022-10-16T07:01:31;99727.75;;;15.83;100.00
38716;BME280;24833;49.324;8.694;2022-10-16T07:03:59;99733.75;;;15.85;100.00
38716;BME280;24833;49.324;8.694;2022-10-16T07:06:27;99744.28;;;15.87;100.00
38716;BME280;24833;49.324;8.694;2022-10-16T07:08:57;99748.38;;;15.89;100.00
38716;BME280;24833;49.324;8.694;2022-10-16T07:11:24;99754.34;;;15.91;100.00
38716;BME280;24833;49.324;8.694;2022-10-16T07:13:51;99749.56;;;15.93;100.00
38716;BME280;24833;49.324;8.694;2022-10-16T07:16:31;99760.09;;;15.95;100.00
38716;BME280;24833;49.324;8.694;2022-10-16T07:19:01;99769.59;;;15.97;100.00
38716;BME280;24833;49.324;8.694;2022-10-16T07:21:34;99771.25;;;15.98;100.00
38716;BME280;24833;49.324;8.694;2022-10-16T07:24:07;99777.22;;;16.00;100.00
38716;BME280;24833;49.324;8.694;2022-10-16T07:26:37;99784.81;;;16.03;100.00
38716;BME280;24833;49.324;8.694;2022-10-16T07:29:20;99793.53;;;16.05;100.00
38716;BME280;24833;49.324;8.694;2022-10-16T07:31:49;99795.75;;;16.08;100.00
38716;BME280;24833;49.324;8.694;2022-10-16T07:34:18;99799.84;;;16.11;100.00
38716;BME280;24833;49.324;8.694;2022-10-16T07:36:49;99808.75;;;16.12;100.00
38716;BME280;24833;49.324;8.694;2022-10-16T07:39:17;99799.16;;;16.16;100.00
38716;BME280;24833;49.324;8.694;2022-10-16T07:41:44;99801.41;;;16.19;100.00
38716;BME280;24833;49.324;8.694;2022-10-16T07:44:11;99807.94;;;16.23;100.00
38716;BME280;24833;49.324;8.694;2022-10-16T07:46:38;99814.53;;;16.27;100.00
38716;BME280;24833;49.324;8.694;2022-10-16T07:49:05;99827.53;;;16.30;100.00
38716;BME280;24833;49.324;8.694;2022-10-16T07:51:32;99820.88;;;16.32;100.00
38716;BME280;24833;49.324;8.694;2022-10-16T07:53:59;99822.84;;;16.37;100.00
38716;BME280;24833;49.324;8.694;2022-10-16T07:56:26;99825.69;;;16.42;100.00
38716;BME280;24833;49.324;8.694;2022-10-16T07:58:53;99830.63;;;16.45;100.00
38716;BME280;24833;49.324;8.694;2022-10-16T08:01:20;99829.56;;;16.46;100.00
38716;BME280;24833;49.324;8.694;2022-10-16T08:03:51;99835.28;;;16.50;100.00
38716;BME280;24833;49.324;8.694;2022-10-16T08:06:21;99837.31;;;16.54;100.00
38716;BME280;24833;49.324;8.694;2022-10-16T08:08:55;99847.59;;;16.57;100.00
38716;BME280;24833;49.324;8.694;2022-10-16T08:11:23;99840.13;;;16.59;100.00
38716;BME280;24833;49.324;8.694;2022-10-16T08:13:50;99846.91;;;16.62;100.00
38716;BME280;24833;49.324;8.694;2022-10-16T08:16:17;99851.84;;;16.65;100.00
38716;BME280;24833;49.324;8.694;2022-10-16T08:18:44;99844.59;;;16.66;100.00
38716;BME280;24833;49.324;8.694;2022-10-16T08:21:19;99842.03;;;16.71;100.00
38716;BME280;24833;49.324;8.694;2022-10-16T08:23:48;99840.75;;;16.73;100.00
38716;BME280;24833;49.324;8.694;2022-10-16T08:26:23;99840.50;;;16.75;100.00
38716;BME280;24833;49.324;8.694;2022-10-16T08:28:50;99842.16;;;16.76;100.00
38716;BME280;24833;49.324;8.694;2022-10-16T08:31:19;99844.59;;;16.77;100.00
38716;BME280;24833;49.324;8.694;2022-10-16T08:33:46;99837.94;;;16.80;100.00
38716;BME280;24833;49.324;8.694;2022-10-16T08:36:15;99850.38;;;16.81;100.00
38716;BME280;24833;49.324;8.694;2022-10-16T08:38:43;99842.84;;;16.83;100.00
38716;BME280;24833;49.324;8.694;2022-10-16T08:49:30;99852.47;;;16.79;100.00
38716;BME280;24833;49.324;8.694;2022-10-16T08:51:57;99863.28;;;16.79;100.00
38716;BME280;24833;49.324;8.694;2022-10-16T08:54:31;99877.34;;;16.81;100.00
38716;BME280;24833;49.324;8.694;2022-10-16T08:57:21;99878.97;;;16.82;100.00
38716;BME280;24833;49.324;8.694;2022-10-16T08:59:51;99882.72;;;16.81;100.00
38716;BME280;24833;49.324;8.694;2022-10-16T09:02:29;99882.72;;;16.81;100.00
38716;BME280;24833;49.324;8.694;2022-10-16T09:11:45;99907.13;;;16.86;100.00
38716;BME280;24833;49.324;8.694;2022-10-16T09:25:45;99949.97;;;17.17;100.00
38716;BME280;24833;49.324;8.694;2022-10-16T09:28:15;99947.63;;;17.21;100.00
38716;BME280;24833;49.324;8.694;2022-10-16T09:30:43;99945.63;;;17.28;100.00
38716;BME280;24833;49.324;8.694;2022-10-16T09:33:12;99955.25;;;17.36;100.00
38716;BME280;24833;49.324;8.694;2022-10-16T09:35:49;99954.31;;;17.42;100.00
38716;BME280;24833;49.324;8.694;2022-10-16T09:38:28;99952.31;;;17.49;100.00
38716;BME280;24833;49.324;8.694;2022-10-16T09:40:58;99959.47;;;17.55;100.00
38716;BME280;24833;49.324;8.694;2022-10-16T09:46:31;99965.09;;;17.65;100.00
38716;BME280;24833;49.324;8.694;2022-10-16T09:49:01;99960.03;;;17.69;100.00
38716;BME280;24833;49.324;8.694;2022-10-16T09:51:30;99953.34;;;17.72;100.00
38716;BME280;24833;49.324;8.694;2022-10-16T09:56:36;99959.94;;;17.76;100.00
38716;BME280;24833;49.324;8.694;2022-10-16T10:01:51;99961.56;;;17.77;100.00
38716;BME280;24833;49.324;8.694;2022-10-16T10:04:23;99971.09;;;17.79;100.00
38716;BME280;24833;49.324;8.694;2022-10-16T10:06:56;99965.44;;;17.81;100.00
38716;BME280;24833;49.324;8.694;2022-10-16T10:12:01;99983.41;;;17.87;100.00
38716;BME280;24833;49.324;8.694;2022-10-16T10:14:38;99981.66;;;17.92;100.00
38716;BME280;24833;49.324;8.694;2022-10-16T10:17:09;99979.84;;;17.98;100.00
38716;BME280;24833;49.324;8.694;2022-10-16T10:30:56;99958.34;;;18.32;100.00
38716;BME280;24833;49.324;8.694;2022-10-16T10:36:40;99957.06;;;18.51;100.00
38716;BME280;24833;49.324;8.694;2022-10-16T10:39:38;99952.00;;;18.55;100.00
38716;BME280;24833;49.324;8.694;2022-10-16T10:42:15;99948.09;;;18.62;100.00
38716;BME280;24833;49.324;8.694;2022-10-16T10:45:04;99958.06;;;18.73;100.00
38716;BME280;24833;49.324;8.694;2022-10-16T10:50:52;99951.75;;;18.85;100.00
38716;BME280;24833;49.324;8.694;2022-10-16T10:53:47;99951.34;;;18.93;100.00
38716;BME280;24833;49.324;8.694;2022-10-16T11:06:46;99955.81;;;19.38;100.00
38716;BME280;24833;49.324;8.694;2022-10-16T11:09:15;99941.34;;;19.49;100.00
38716;BME280;24833;49.324;8.694;2022-10-16T11:11:59;99956.63;;;19.55;100.00
38716;BME280;24833;49.324;8.694;2022-10-16T11:17:23;99954.69;;;19.72;100.00
38716;BME280;24833;49.324;8.694;2022-10-16T11:20:20;99965.94;;;19.81;100.00
38716;BME280;24833;49.324;8.694;2022-10-16T11:22:55;99956.03;;;19.92;100.00
38716;BME280;24833;49.324;8.694;2022-10-16T11:25:30;99962.66;;;20.01;100.00
38716;BME280;24833;49.324;8.694;2022-10-16T11:28:27;99961.69;;;20.12;100.00
38716;BME280;24833;49.324;8.694;2022-10-16T11:31:17;99962.31;;;20.19;100.00
38716;BME280;24833;49.324;8.694;2022-10-16T11:34:06;99960.28;;;20.31;100.00
38716;BME280;24833;49.324;8.694;2022-10-16T11:39:30;99946.56;;;20.43;100.00
38716;BME280;24833;49.324;8.694;2022-10-16T11:42:18;99938.38;;;20.60;100.00
38716;BME280;24833;49.324;8.694;2022-10-16T11:45:00;99937.59;;;20.64;100.00
38716;BME280;24833;49.324;8.694;2022-10-16T11:47:40;99933.38;;;20.52;99.21
38716;BME280;24833;49.324;8.694;2022-10-16T11:55:51;99943.16;;;20.53;100.00
38716;BME280;24833;49.324;8.694;2022-10-16T11:59:13;99946.19;;;20.56;100.00
38716;BME280;24833;49.324;8.694;2022-10-16T12:01:47;99948.84;;;20.51;100.00
38716;BME280;24833;49.324;8.694;2022-10-16T12:04:34;99952.97;;;20.54;100.00
38716;BME280;24833;49.324;8.694;2022-10-16T12:07:13;99944.25;;;20.52;100.00
38716;BME280;24833;49.324;8.694;2022-10-16T12:09:42;99951.28;;;20.48;100.00
38716;BME280;24833;49.324;8.694;2022-10-16T12:12:45;99947.53;;;20.54;100.00
38716;BME280;24833;49.324;8.694;2022-10-16T12:15:20;99941.59;;;20.57;100.00
38716;BME280;24833;49.324;8.694;2022-10-16T12:18:24;99952.16;;;20.53;100.00
38716;BME280;24833;49.324;8.694;2022-10-16T12:20:58;99947.47;;;20.49;100.00
38716;BME280;24833;49.324;8.694;2022-10-16T12:23:53;99944.81;;;20.54;100.00
38716;BME280;24833;49.324;8.694;2022-10-16T12:26:30;99946.97;;;20.52;100.00
38716;BME280;24833;49.324;8.694;2022-10-16T12:29:25;99930.56;;;20.41;99.12
38716;BME280;24833;49.324;8.694;2022-10-16T12:31:55;99930.13;;;20.50;100.00
38716;BME280;24833;49.324;8.694;2022-10-16T12:34:40;99931.75;;;20.51;100.00
38716;BME280;24833;49.324;8.694;2022-10-16T12:37:36;99925.22;;;20.47;100.00
38716;BME280;24833;49.324;8.694;2022-10-16T12:40:28;99925.22;;;20.47;100.00
38716;BME280;24833;49.324;8.694;2022-10-16T12:42:56;99930.69;;;20.52;100.00
38716;BME280;24833;49.324;8.694;2022-10-16T12:45:33;99933.09;;;20.48;100.00
38716;BME280;24833;49.324;8.694;2022-10-16T12:48:04;99924.16;;;20.53;100.00
38716;BME280;24833;49.324;8.694;2022-10-16T12:50:44;99930.72;;;20.57;99.60
38716;BME280;24833;49.324;8.694;2022-10-16T12:53:24;99932.38;;;20.58;97.56
38716;BME280;24833;49.324;8.694;2022-10-16T12:56:20;99925.19;;;20.74;100.00
38716;BME280;24833;49.324;8.694;2022-10-16T13:03:01;99922.47;;;20.74;99.14
38716;BME280;24833;49.324;8.694;2022-10-16T13:12:15;99949.25;;;20.65;97.42
38716;BME280;24833;49.324;8.694;2022-10-16T13:17:56;99952.03;;;20.70;100.00
38716;BME280;24833;49.324;8.694;2022-10-16T13:21:01;99952.56;;;20.67;100.00
38716;BME280;24833;49.324;8.694;2022-10-16T13:24:04;99952.44;;;20.57;97.47
38716;BME280;24833;49.324;8.694;2022-10-16T13:27:01;99962.16;;;20.53;96.83
38716;BME280;24833;49.324;8.694;2022-10-16T13:29:33;99968.66;;;20.52;97.90
38716;BME280;24833;49.324;8.694;2022-10-16T13:32:10;99966.97;;;20.46;97.27
38716;BME280;24833;49.324;8.694;2022-10-16T13:34:48;99955.06;;;20.47;98.31
38716;BME280;24833;49.324;8.694;2022-10-16T13:37:21;99969.91;;;20.44;98.56
38716;BME280;24833;49.324;8.694;2022-10-16T13:39:50;99967.97;;;20.39;97.38
38716;BME280;24833;49.324;8.694;2022-10-16T13:42:27;99961.44;;;20.35;98.08
38716;BME280;24833;49.324;8.694;2022-10-16T13:44:56;99952.72;;;20.33;98.05
38716;BME280;24833;49.324;8.694;2022-10-16T13:47:27;99949.97;;;20.28;98.18
38716;BME280;24833;49.324;8.694;2022-10-16T13:50:09;99942.31;;;20.25;98.40
38716;BME280;24833;49.324;8.694;2022-10-16T13:52:38;99951.22;;;20.21;97.70
38716;BME280;24833;49.324;8.694;2022-10-16T13:55:15;99949.00;;;20.18;98.05
38716;BME280;24833;49.324;8.694;2022-10-16T13:57:43;99960.13;;;20.16;98.55
38716;BME280;24833;49.324;8.694;2022-10-16T14:00:22;99960.88;;;20.11;98.13
38716;BME280;24833;49.324;8.694;2022-10-16T14:03:03;99954.06;;;20.09;98.64
38716;BME280;24833;49.324;8.694;2022-10-16T14:05:32;99957.81;;;20.03;97.94
38716;BME280;24833;49.324;8.694;2022-10-16T14:07:59;99944.19;;;19.98;97.37
38716;BME280;24833;49.324;8.694;2022-10-16T14:10:30;99947.06;;;19.91;96.77
38716;BME280;24833;49.324;8.694;2022-10-16T14:13:04;99945.69;;;19.89;97.12
38716;BME280;24833;49.324;8.694;2022-10-16T14:15:34;99932.91;;;19.84;96.43
38716;BME280;24833;49.324;8.694;2022-10-16T14:18:02;99934.16;;;19.76;95.77
38716;BME280;24833;49.324;8.694;2022-10-16T14:20:33;99932.53;;;19.75;96.72
38716;BME280;24833;49.324;8.694;2022-10-16T14:23:20;99930.81;;;19.69;96.18
38716;BME280;24833;49.324;8.694;2022-10-16T14:25:47;99936.25;;;19.69;96.41
38716;BME280;24833;49.324;8.694;2022-10-16T14:28:21;99941.84;;;19.63;96.01
38716;BME280;24833;49.324;8.694;2022-10-16T14:31:03;99946.94;;;19.59;96.31
38716;BME280;24833;49.324;8.694;2022-10-16T14:33:47;99950.94;;;19.56;96.44
38716;BME280;24833;49.324;8.694;2022-10-16T14:36:16;99954.97;;;19.54;96.29
38716;BME280;24833;49.324;8.694;2022-10-16T14:39:17;99949.41;;;19.44;95.45
38716;BME280;24833;49.324;8.694;2022-10-16T14:41:48;99952.38;;;19.42;95.67
38716;BME280;24833;49.324;8.694;2022-10-16T14:44:18;99965.56;;;19.39;95.29
38716;BME280;24833;49.324;8.694;2022-10-16T14:46:47;99956.59;;;19.33;94.94
38716;BME280;24833;49.324;8.694;2022-10-16T14:49:18;99963.28;;;19.30;94.98
38716;BME280;24833;49.324;8.694;2022-10-16T14:51:47;99958.38;;;19.27;94.98
38716;BME280;24833;49.324;8.694;2022-10-16T14:54:17;99942.56;;;19.19;93.89
38716;BME280;24833;49.324;8.694;2022-10-16T14:56:54;99953.41;;;19.19;94.27